sensor_id;sensor_type;location;lat;lon;timestamp;pressure;altitude;pressure_sealevel;temperature;humidity
58245;BME280;44550;43.864;25.986;2023-05-09T00:01:20;101807.16;;;8.53;100.00
58245;BME280;44550;43.864;25.986;2023-05-09T00:05:28;101807.06;;;8.50;100.00
58245;BME280;44550;43.864;25.986;2023-05-09T00:09:35;101803.44;;;8.45;100.00
58245;BME280;44550;43.864;25.986;2023-05-09T00:13:53;101801.63;;;8.44;100.00
58245;BME280;44550;43.864;25.986;2023-05-09T00:18:15;101801.72;;;8.47;100.00
58245;BME280;44550;43.864;25.986;2023-05-09T00:22:19;101805.81;;;8.39;100.00
58245;BME280;44550;43.864;25.986;2023-05-09T00:26:40;101812.25;;;8.50;100.00
58245;BME280;44550;43.864;25.986;2023-05-09T00:30:54;101817.44;;;8.49;100.00
58245;BME280;44550;43.864;25.986;2023-05-09T00:39:50;101817.38;;;8.47;100.00
58245;BME280;44550;43.864;25.986;2023-05-09T00:43:55;101820.47;;;8.37;100.00
58245;BME280;44550;43.864;25.986;2023-05-09T00:48:01;101817.13;;;8.39;100.00
58245;BME280;44550;43.864;25.986;2023-05-09T00:52:13;101821.66;;;8.45;100.00
58245;BME280;44550;43.864;25.986;2023-05-09T00:56:26;101818.88;;;8.40;100.00
58245;BME280;44550;43.864;25.986;2023-05-09T01:00:44;101824.81;;;8.36;100.00
58245;BME280;44550;43.864;25.986;2023-05-09T01:05:11;101828.31;;;8.37;100.00
58245;BME280;44550;43.864;25.986;2023-05-09T01:09:39;101835.59;;;8.45;100.00
58245;BME280;44550;43.864;25.986;2023-05-09T01:14:11;101821.50;;;8.40;100.00
58245;BME280;44550;43.864;25.986;2023-05-09T01:18:20;101824.78;;;8.35;100.00
58245;BME280;44550;43.864;25.986;2023-05-09T01:22:29;101821.25;;;8.34;100.00
58245;BME280;44550;43.864;25.986;2023-05-09T01:26:35;101820.03;;;8.23;100.00
58245;BME280;44550;43.864;25.986;2023-05-09T01:30:53;101826.31;;;8.30;100.00
58245;BME280;44550;43.864;25.986;2023-05-09T01:35:03;101813.84;;;8.19;100.00
58245;BME280;44550;43.864;25.986;2023-05-09T01:39:04;101827.06;;;8.26;100.00
58245;BME280;44550;43.864;25.986;2023-05-09T01:43:12;101835.00;;;8.29;100.00
58245;BME280;44550;43.864;25.986;2023-05-09T01:47:20;101837.75;;;8.33;100.00
58245;BME280;44550;43.864;25.986;2023-05-09T01:51:23;101835.25;;;8.36;100.00
58245;BME280;44550;43.864;25.986;2023-05-09T01:55:31;101832.81;;;8.15;100.00
58245;BME280;44550;43.864;25.986;2023-05-09T01:59:37;101832.94;;;8.20;100.00
58245;BME280;44550;43.864;25.986;2023-05-09T02:03:44;101829.50;;;8.21;100.00
58245;BME280;44550;43.864;25.986;2023-05-09T02:07:50;101836.72;;;8.28;100.00
58245;BME280;44550;43.864;25.986;2023-05-09T02:11:59;101832.38;;;8.29;100.00
58245;BME280;44550;43.864;25.986;2023-05-09T02:16:04;101823.38;;;8.19;100.00
58245;BME280;44550;43.864;25.986;2023-05-09T02:20:10;101829.25;;;8.13;100.00
58245;BME280;44550;43.864;25.986;2023-05-09T02:24:29;101834.41;;;8.12;100.00
58245;BME280;44550;43.864;25.986;2023-05-09T02:28:36;101825.75;;;8.13;100.00
58245;BME280;44550;43.864;25.986;2023-05-09T02:32:38;101829.44;;;8.18;100.00
58245;BME280;44550;43.864;25.986;2023-05-09T02:36:48;101823.19;;;8.14;100.00
58245;BME280;44550;43.864;25.986;2023-05-09T02:40:56;101829.25;;;8.13;100.00
58245;BME280;44550;43.864;25.986;2023-05-09T02:44:59;101825.09;;;8.18;100.00
58245;BME280;44550;43.864;25.986;2023-05-09T02:49:01;101833.72;;;8.17;100.00
58245;BME280;44550;43.864;25.986;2023-05-09T02:53:09;101842.44;;;8.18;100.00
58245;BME280;44550;43.864;25.986;2023-05-09T02:57:17;101841.28;;;8.10;100.00
58245;BME280;44550;43.864;25.986;2023-05-09T03:01:18;101842.13;;;8.09;100.00
58245;BME280;44550;43.864;25.986;2023-05-09T03:05:20;101840.84;;;8.21;100.00
58245;BME280;44550;43.864;25.986;2023-05-09T03:09:28;101839.91;;;8.21;100.00
58245;BME280;44550;43.864;25.986;2023-05-09T03:13:37;101848.47;;;8.17;100.00
58245;BME280;44550;43.864;25.986;2023-05-09T03:17:38;101844.25;;;8.20;100.00
58245;BME280;44550;43.864;25.986;2023-05-09T03:21:45;101842.34;;;8.15;100.00
58245;BME280;44550;43.864;25.986;2023-05-09T03:26:06;101853.66;;;8.15;100.00
58245;BME280;44550;43.864;25.986;2023-05-09T03:30:10;101859.84;;;8.19;100.00
58245;BME280;44550;43.864;25.986;2023-05-09T03:34:15;101870.19;;;8.17;100.00
58245;BME280;44550;43.864;25.986;2023-05-09T03:38:15;101868.88;;;8.29;100.00
58245;BME280;44550;43.864;25.986;2023-05-09T03:42:29;101869.38;;;8.18;100.00
58245;BME280;44550;43.864;25.986;2023-05-09T03:46:29;101875.28;;;8.14;100.00
58245;BME280;44550;43.864;25.986;2023-05-09T03:50:31;101885.91;;;8.19;100.00
58245;BME280;44550;43.864;25.986;2023-05-09T03:54:31;101888.31;;;8.14;100.00
58245;BME280;44550;43.864;25.986;2023-05-09T03:58:35;101895.38;;;8.17;100.00
58245;BME280;44550;43.864;25.986;2023-05-09T04:02:39;101900.56;;;8.17;100.00
58245;BME280;44550;43.864;25.986;2023-05-09T04:06:40;101903.66;;;8.31;100.00
58245;BME280;44550;43.864;25.986;2023-05-09T04:10:40;101913.09;;;8.27;100.00
58245;BME280;44550;43.864;25.986;2023-05-09T04:14:43;101906.16;;;8.28;100.00
58245;BME280;44550;43.864;25.986;2023-05-09T04:18:45;101920.97;;;8.29;100.00
58245;BME280;44550;43.864;25.986;2023-05-09T04:22:46;101930.44;;;8.27;100.00
58245;BME280;44550;43.864;25.986;2023-05-09T04:26:46;101932.41;;;8.32;100.00
58245;BME280;44550;43.864;25.986;2023-05-09T04:30:50;101929.03;;;8.35;100.00
58245;BME280;44550;43.864;25.986;2023-05-09T04:34:54;101935.91;;;8.34;100.00
58245;BME280;44550;43.864;25.986;2023-05-09T04:38:55;101924.31;;;8.24;100.00
58245;BME280;44550;43.864;25.986;2023-05-09T04:42:55;101927.94;;;8.30;100.00
58245;BME280;44550;43.864;25.986;2023-05-09T04:46:58;101934.94;;;8.31;100.00
58245;BME280;44550;43.864;25.986;2023-05-09T04:50:58;101936.88;;;8.36;100.00
58245;BME280;44550;43.864;25.986;2023-05-09T04:54:58;101943.19;;;8.41;100.00
58245;BME280;44550;43.864;25.986;2023-05-09T04:58:59;101936.38;;;8.46;100.00
58245;BME280;44550;43.864;25.986;2023-05-09T05:03:02;101931.50;;;8.56;100.00
58245;BME280;44550;43.864;25.986;2023-05-09T05:07:05;101928.91;;;8.56;100.00
58245;BME280;44550;43.864;25.986;2023-05-09T05:11:07;101935.97;;;8.60;100.00
58245;BME280;44550;43.864;25.986;2023-05-09T05:15:08;101932.06;;;8.73;100.00
58245;BME280;44550;43.864;25.986;2023-05-09T05:19:12;101939.22;;;8.78;100.00
58245;BME280;44550;43.864;25.986;2023-05-09T05:23:13;101938.50;;;8.84;100.00
58245;BME280;44550;43.864;25.986;2023-05-09T05:27:15;101934.09;;;8.81;100.00
58245;BME280;44550;43.864;25.986;2023-05-09T05:31:15;101931.00;;;8.93;100.00
58245;BME280;44550;43.864;25.986;2023-05-09T05:35:18;101942.59;;;9.01;100.00
58245;BME280;44550;43.864;25.986;2023-05-09T05:39:19;101940.50;;;9.18;100.00
58245;BME280;44550;43.864;25.986;2023-05-09T05:43:21;101944.44;;;9.32;100.00
58245;BME280;44550;43.864;25.986;2023-05-09T05:47:23;101940.25;;;9.37;100.00
58245;BME280;44550;43.864;25.986;2023-05-09T05:51:27;101949.06;;;9.41;100.00
58245;BME280;44550;43.864;25.986;2023-05-09T05:55:32;101941.69;;;9.28;100.00
58245;BME280;44550;43.864;25.986;2023-05-09T05:59:34;101950.81;;;9.42;100.00
58245;BME280;44550;43.864;25.986;2023-05-09T06:03:35;101954.03;;;9.33;100.00
58245;BME280;44550;43.864;25.986;2023-05-09T06:07:38;101956.38;;;9.24;100.00
58245;BME280;44550;43.864;25.986;2023-05-09T06:11:39;101949.63;;;9.31;100.00
58245;BME280;44550;43.864;25.986;2023-05-09T06:15:40;101951.69;;;9.41;100.00
58245;BME280;44550;43.864;25.986;2023-05-09T06:19:40;101944.84;;;9.46;100.00
58245;BME280;44550;43.864;25.986;2023-05-09T06:23:47;101947.75;;;9.55;100.00
58245;BME280;44550;43.864;25.986;2023-05-09T06:28:06;101942.34;;;9.49;100.00
58245;BME280;44550;43.864;25.986;2023-05-09T06:32:06;101942.91;;;9.68;100.00
58245;BME280;44550;43.864;25.986;2023-05-09T06:36:06;101943.09;;;9.74;100.00
58245;BME280;44550;43.864;25.986;2023-05-09T06:40:09;101949.31;;;9.79;100.00
58245;BME280;44550;43.864;25.986;2023-05-09T06:44:10;101952.22;;;9.88;100.00
58245;BME280;44550;43.864;25.986;2023-05-09T06:48:11;101958.41;;;9.92;100.00
58245;BME280;44550;43.864;25.986;2023-05-09T06:52:11;101965.72;;;10.03;100.00
58245;BME280;44550;43.864;25.986;2023-05-09T06:56:14;101957.81;;;10.02;100.00
58245;BME280;44550;43.864;25.986;2023-05-09T07:00:17;101954.50;;;10.07;100.00
58245;BME280;44550;43.864;25.986;2023-05-09T07:04:17;101949.13;;;10.03;100.00
58245;BME280;44550;43.864;25.986;2023-05-09T07:08:17;101952.69;;;10.35;100.00
58245;BME280;44550;43.864;25.986;2023-05-09T07:12:20;101958.72;;;10.32;100.00
58245;BME280;44550;43.864;25.986;2023-05-09T07:16:25;101951.03;;;10.39;100.00
58245;BME280;44550;43.864;25.986;2023-05-09T07:20:26;101951.38;;;10.51;100.00
58245;BME280;44550;43.864;25.986;2023-05-09T07:24:26;101956.63;;;10.52;100.00
58245;BME280;44550;43.864;25.986;2023-05-09T07:28:28;101952.41;;;10.57;100.00
58245;BME280;44550;43.864;25.986;2023-05-09T07:32:30;101956.69;;;10.54;100.00
58245;BME280;44550;43.864;25.986;2023-05-09T07:36:31;101955.13;;;10.61;100.00
58245;BME280;44550;43.864;25.986;2023-05-09T07:40:32;101955.13;;;10.61;100.00
58245;BME280;44550;43.864;25.986;2023-05-09T07:44:38;101964.13;;;10.72;100.00
58245;BME280;44550;43.864;25.986;2023-05-09T07:48:38;101960.69;;;10.74;100.00
58245;BME280;44550;43.864;25.986;2023-05-09T07:52:39;101956.63;;;10.86;100.00
58245;BME280;44550;43.864;25.986;2023-05-09T07:56:39;101958.41;;;10.87;100.00
58245;BME280;44550;43.864;25.986;2023-05-09T08:00:41;101960.41;;;10.98;100.00
58245;BME280;44550;43.864;25.986;2023-05-09T08:04:42;101958.47;;;10.90;100.00
58245;BME280;44550;43.864;25.986;2023-05-09T08:08:45;101959.47;;;10.95;100.00
58245;BME280;44550;43.864;25.986;2023-05-09T08:12:45;101944.50;;;10.89;100.00
58245;BME280;44550;43.864;25.986;2023-05-09T08:16:51;101945.19;;;11.17;100.00
58245;BME280;44550;43.864;25.986;2023-05-09T08:20:51;101944.47;;;11.24;100.00
58245;BME280;44550;43.864;25.986;2023-05-09T08:24:54;101949.94;;;11.33;100.00
58245;BME280;44550;43.864;25.986;2023-05-09T08:28:54;101945.50;;;11.31;100.00
58245;BME280;44550;43.864;25.986;2023-05-09T08:33:02;101940.91;;;11.60;100.00
58245;BME280;44550;43.864;25.986;2023-05-09T08:37:11;101938.09;;;11.90;100.00
58245;BME280;44550;43.864;25.986;2023-05-09T08:41:12;101941.69;;;11.95;100.00
58245;BME280;44550;43.864;25.986;2023-05-09T08:45:13;101946.41;;;12.13;100.00
58245;BME280;44550;43.864;25.986;2023-05-09T08:49:20;101925.06;;;12.38;100.00
58245;BME280;44550;43.864;25.986;2023-05-09T08:53:21;101931.09;;;12.34;100.00
58245;BME280;44550;43.864;25.986;2023-05-09T08:57:24;101928.94;;;12.60;100.00
58245;BME280;44550;43.864;25.986;2023-05-09T09:01:29;101923.09;;;12.75;100.00
58245;BME280;44550;43.864;25.986;2023-05-09T09:05:37;101912.72;;;12.84;100.00
58245;BME280;44550;43.864;25.986;2023-05-09T09:09:43;101912.19;;;13.07;100.00
58245;BME280;44550;43.864;25.986;2023-05-09T09:13:51;101909.03;;;13.25;100.00
58245;BME280;44550;43.864;25.986;2023-05-09T09:17:54;101904.31;;;13.66;100.00
58245;BME280;44550;43.864;25.986;2023-05-09T09:22:01;101916.81;;;13.85;97.36
58245;BME280;44550;43.864;25.986;2023-05-09T09:26:04;101922.03;;;13.84;98.13
58245;BME280;44550;43.864;25.986;2023-05-09T09:30:07;101915.69;;;13.65;97.74
58245;BME280;44550;43.864;25.986;2023-05-09T09:34:18;101924.19;;;13.46;100.00
58245;BME280;44550;43.864;25.986;2023-05-09T09:38:22;101921.47;;;14.09;100.00
58245;BME280;44550;43.864;25.986;2023-05-09T09:42:23;101924.72;;;13.87;94.75
58245;BME280;44550;43.864;25.986;2023-05-09T09:46:24;101908.09;;;13.88;95.23
58245;BME280;44550;43.864;25.986;2023-05-09T09:50:24;101903.72;;;13.90;96.90
58245;BME280;44550;43.864;25.986;2023-05-09T09:54:28;101897.84;;;14.11;93.95
58245;BME280;44550;43.864;25.986;2023-05-09T09:58:28;101895.44;;;14.36;92.25
58245;BME280;44550;43.864;25.986;2023-05-09T10:02:28;101897.59;;;14.75;90.68
58245;BME280;44550;43.864;25.986;2023-05-09T10:06:34;101901.16;;;14.82;88.52
58245;BME280;44550;43.864;25.986;2023-05-09T10:10:37;101888.16;;;15.04;89.45
58245;BME280;44550;43.864;25.986;2023-05-09T10:14:37;101898.66;;;15.03;88.49
58245;BME280;44550;43.864;25.986;2023-05-09T10:18:41;101887.97;;;14.83;90.98
58245;BME280;44550;43.864;25.986;2023-05-09T10:22:41;101885.00;;;14.46;87.80
58245;BME280;44550;43.864;25.986;2023-05-09T10:26:44;101871.75;;;14.36;93.06
58245;BME280;44550;43.864;25.986;2023-05-09T10:30:48;101881.50;;;14.46;89.65
58245;BME280;44550;43.864;25.986;2023-05-09T10:34:51;101897.28;;;14.44;91.34
58245;BME280;44550;43.864;25.986;2023-05-09T10:38:54;101891.56;;;14.87;90.41
58245;BME280;44550;43.864;25.986;2023-05-09T10:42:57;101887.50;;;15.41;79.34
58245;BME280;44550;43.864;25.986;2023-05-09T10:47:39;101890.81;;;15.08;78.74
58245;BME280;44550;43.864;25.986;2023-05-09T10:51:44;101897.75;;;14.99;80.44
58245;BME280;44550;43.864;25.986;2023-05-09T10:55:48;101896.81;;;14.87;82.28
58245;BME280;44550;43.864;25.986;2023-05-09T10:59:52;101895.88;;;14.78;81.96
58245;BME280;44550;43.864;25.986;2023-05-09T11:03:56;101891.59;;;14.94;83.07
58245;BME280;44550;43.864;25.986;2023-05-09T11:08:22;101894.28;;;15.02;85.15
58245;BME280;44550;43.864;25.986;2023-05-09T11:12:53;101890.91;;;15.21;83.22
58245;BME280;44550;43.864;25.986;2023-05-09T11:17:02;101891.75;;;15.17;80.28
58245;BME280;44550;43.864;25.986;2023-05-09T11:21:06;101890.03;;;15.21;82.17
58245;BME280;44550;43.864;25.986;2023-05-09T11:25:10;101891.75;;;15.17;80.95
58245;BME280;44550;43.864;25.986;2023-05-09T11:29:14;101882.13;;;15.21;79.97
58245;BME280;44550;43.864;25.986;2023-05-09T11:33:26;101889.91;;;15.01;79.77
58245;BME280;44550;43.864;25.986;2023-05-09T11:37:28;101884.53;;;14.89;80.42
58245;BME280;44550;43.864;25.986;2023-05-09T11:41:30;101883.63;;;14.85;80.97
58245;BME280;44550;43.864;25.986;2023-05-09T11:45:31;101884.47;;;14.83;80.98
58245;BME280;44550;43.864;25.986;2023-05-09T11:49:33;101874.88;;;14.89;81.40
58245;BME280;44550;43.864;25.986;2023-05-09T11:53:39;101874.06;;;14.98;81.22
58245;BME280;44550;43.864;25.986;2023-05-09T11:57:44;101870.50;;;14.93;77.71
58245;BME280;44550;43.864;25.986;2023-05-09T12:01:45;101862.69;;;15.03;77.75
58245;BME280;44550;43.864;25.986;2023-05-09T12:05:48;101860.28;;;15.43;76.36
58245;BME280;44550;43.864;25.986;2023-05-09T12:09:50;101853.47;;;15.90;76.75
58245;BME280;44550;43.864;25.986;2023-05-09T12:13:51;101845.63;;;16.36;72.29
58245;BME280;44550;43.864;25.986;2023-05-09T12:18:01;101853.53;;;16.37;69.70
58245;BME280;44550;43.864;25.986;2023-05-09T12:22:05;101841.19;;;16.21;71.00
58245;BME280;44550;43.864;25.986;2023-05-09T12:26:08;101843.84;;;16.70;72.28
58245;BME280;44550;43.864;25.986;2023-05-09T12:30:10;101840.31;;;16.57;71.09
58245;BME280;44550;43.864;25.986;2023-05-09T12:34:12;101839.41;;;16.15;71.32
58245;BME280;44550;43.864;25.986;2023-05-09T12:38:19;101835.84;;;15.87;74.17
58245;BME280;44550;43.864;25.986;2023-05-09T12:42:23;101826.16;;;15.74;73.93
58245;BME280;44550;43.864;25.986;2023-05-09T12:46:26;101824.41;;;15.81;74.79
58245;BME280;44550;43.864;25.986;2023-05-09T12:50:34;101812.13;;;15.93;74.01
58245;BME280;44550;43.864;25.986;2023-05-09T12:54:43;101810.41;;;16.17;73.68
58245;BME280;44550;43.864;25.986;2023-05-09T12:58:47;101801.63;;;16.16;73.36
58245;BME280;44550;43.864;25.986;2023-05-09T13:02:50;101803.34;;;16.11;74.52
58245;BME280;44550;43.864;25.986;2023-05-09T13:06:53;101810.41;;;16.06;72.25
58245;BME280;44550;43.864;25.986;2023-05-09T13:10:57;101806.00;;;16.22;72.05
58245;BME280;44550;43.864;25.986;2023-05-09T13:15:15;101809.53;;;16.27;69.10
58245;BME280;44550;43.864;25.986;2023-05-09T13:19:21;101794.53;;;15.94;70.26
58245;BME280;44550;43.864;25.986;2023-05-09T13:23:22;101801.59;;;16.00;71.61
58245;BME280;44550;43.864;25.986;2023-05-09T13:27:28;101808.56;;;15.78;71.89
58245;BME280;44550;43.864;25.986;2023-05-09T13:31:32;101801.47;;;15.66;72.50
58245;BME280;44550;43.864;25.986;2023-05-09T13:35:36;101803.16;;;15.45;72.32
58245;BME280;44550;43.864;25.986;2023-05-09T13:39:36;101806.69;;;15.46;72.62
58245;BME280;44550;43.864;25.986;2023-05-09T13:43:43;101794.41;;;15.54;72.95
58245;BME280;44550;43.864;25.986;2023-05-09T13:47:45;101801.38;;;15.35;71.67
58245;BME280;44550;43.864;25.986;2023-05-09T13:51:48;101796.91;;;15.14;71.44
58245;BME280;44550;43.864;25.986;2023-05-09T13:55:53;101798.59;;;15.04;71.94
58245;BME280;44550;43.864;25.986;2023-05-09T13:59:57;101791.63;;;15.16;74.04
58245;BME280;44550;43.864;25.986;2023-05-09T14:03:57;101800.47;;;15.32;76.10
58245;BME280;44550;43.864;25.986;2023-05-09T14:08:00;101798.75;;;15.37;76.39
58245;BME280;44550;43.864;25.986;2023-05-09T14:12:01;101797.78;;;15.18;76.58
58245;BME280;44550;43.864;25.986;2023-05-09T14:16:04;101797.84;;;15.32;76.64
58245;BME280;44550;43.864;25.986;2023-05-09T14:20:06;101794.28;;;15.22;76.35
58245;BME280;44550;43.864;25.986;2023-05-09T14:24:07;101789.88;;;15.15;76.07
58245;BME280;44550;43.864;25.986;2023-05-09T14:28:13;101796.81;;;15.00;73.89
58245;BME280;44550;43.864;25.986;2023-05-09T14:32:18;101791.56;;;15.00;72.85
58245;BME280;44550;43.864;25.986;2023-05-09T14:36:20;101790.72;;;15.09;75.37
58245;BME280;44550;43.864;25.986;2023-05-09T14:40:33;101793.34;;;15.12;74.54
58245;BME280;44550;43.864;25.986;2023-05-09T14:44:53;101795.06;;;15.01;76.02
58245;BME280;44550;43.864;25.986;2023-05-09T14:48:56;101801.25;;;15.09;77.63
58245;BME280;44550;43.864;25.986;2023-05-09T14:53:04;101793.41;;;15.17;76.85
58245;BME280;44550;43.864;25.986;2023-05-09T14:57:37;101791.59;;;15.11;76.31
58245;BME280;44550;43.864;25.986;2023-05-09T15:01:44;101797.00;;;15.39;73.56
58245;BME280;44550;43.864;25.986;2023-05-09T15:05:51;101797.72;;;15.06;75.47
58245;BME280;44550;43.864;25.986;2023-05-09T15:09:58;101815.19;;;14.93;77.32
58245;BME280;44550;43.864;25.986;2023-05-09T15:13:59;101802.81;;;14.76;78.79
58245;BME280;44550;43.864;25.986;2023-05-09T15:18:00;101808.94;;;14.72;79.40
58245;BME280;44550;43.864;25.986;2023-05-09T15:22:10;101809.66;;;14.51;80.43
58245;BME280;44550;43.864;25.986;2023-05-09T15:26:15;101805.06;;;14.29;82.18
58245;BME280;44550;43.864;25.986;2023-05-09T15:30:16;101805.84;;;14.17;82.61
58245;BME280;44550;43.864;25.986;2023-05-09T15:34:17;101803.22;;;14.20;81.70
58245;BME280;44550;43.864;25.986;2023-05-09T15:38:22;101797.91;;;14.13;81.46
58245;BME280;44550;43.864;25.986;2023-05-09T15:46:44;101785.66;;;14.15;81.47
58245;BME280;44550;43.864;25.986;2023-05-09T15:50:51;101794.38;;;14.14;82.28
58245;BME280;44550;43.864;25.986;2023-05-09T15:54:58;101788.13;;;13.99;83.04
58245;BME280;44550;43.864;25.986;2023-05-09T15:59:01;101796.72;;;13.81;84.04
58245;BME280;44550;43.864;25.986;2023-05-09T16:03:02;101795.78;;;13.76;85.73
58245;BME280;44550;43.864;25.986;2023-05-09T16:07:05;101793.13;;;13.72;85.93
58245;BME280;44550;43.864;25.986;2023-05-09T16:11:08;101797.44;;;13.67;87.35
58245;BME280;44550;43.864;25.986;2023-05-09T16:15:09;101796.59;;;13.68;88.48
58245;BME280;44550;43.864;25.986;2023-05-09T16:19:12;101794.78;;;13.65;89.31
58245;BME280;44550;43.864;25.986;2023-05-09T16:23:15;101800.13;;;13.71;89.01
58245;BME280;44550;43.864;25.986;2023-05-09T16:27:31;101795.78;;;13.75;89.48
58245;BME280;44550;43.864;25.986;2023-05-09T16:31:48;101797.34;;;13.59;89.88
58245;BME280;44550;43.864;25.986;2023-05-09T16:36:03;101800.16;;;13.77;88.74
58245;BME280;44550;43.864;25.986;2023-05-09T16:40:10;101800.97;;;13.69;88.00
58245;BME280;44550;43.864;25.986;2023-05-09T16:44:14;101798.03;;;13.43;90.31
58245;BME280;44550;43.864;25.986;2023-05-09T16:48:21;101798.06;;;13.46;93.33
58245;BME280;44550;43.864;25.986;2023-05-09T16:52:25;101806.06;;;13.56;94.72
58245;BME280;44550;43.864;25.986;2023-05-09T16:56:27;101817.50;;;13.58;95.27
58245;BME280;44550;43.864;25.986;2023-05-09T17:00:33;101816.47;;;13.47;95.50
58245;BME280;44550;43.864;25.986;2023-05-09T17:04:34;101814.63;;;13.38;96.79
58245;BME280;44550;43.864;25.986;2023-05-09T17:08:37;101816.09;;;13.20;100.00
58245;BME280;44550;43.864;25.986;2023-05-09T17:12:43;101821.75;;;12.85;100.00
58245;BME280;44550;43.864;25.986;2023-05-09T17:17:13;101832.88;;;12.68;100.00
58245;BME280;44550;43.864;25.986;2023-05-09T17:21:35;101831.75;;;12.54;100.00
58245;BME280;44550;43.864;25.986;2023-05-09T17:25:56;101842.78;;;12.33;100.00
58245;BME280;44550;43.864;25.986;2023-05-09T17:30:03;101817.91;;;12.10;100.00
58245;BME280;44550;43.864;25.986;2023-05-09T17:38:58;101845.81;;;12.08;100.00
58245;BME280;44550;43.864;25.986;2023-05-09T17:42:58;101843.06;;;12.02;100.00
58245;BME280;44550;43.864;25.986;2023-05-09T17:47:03;101840.31;;;11.94;100.00
58245;BME280;44550;43.864;25.986;2023-05-09T17:51:10;101844.59;;;11.89;100.00
58245;BME280;44550;43.864;25.986;2023-05-09T17:55:14;101862.03;;;11.87;100.00
58245;BME280;44550;43.864;25.986;2023-05-09T17:59:18;101853.06;;;11.77;100.00
58245;BME280;44550;43.864;25.986;2023-05-09T18:03:19;101867.78;;;11.70;100.00
58245;BME280;44550;43.864;25.986;2023-05-09T18:07:25;101864.09;;;11.61;100.00
58245;BME280;44550;43.864;25.986;2023-05-09T18:11:31;101872.69;;;11.55;100.00
58245;BME280;44550;43.864;25.986;2023-05-09T18:15:31;101878.88;;;11.59;100.00
58245;BME280;44550;43.864;25.986;2023-05-09T18:19:39;101881.53;;;11.60;100.00
58245;BME280;44550;43.864;25.986;2023-05-09T18:23:39;101877.91;;;11.53;100.00
58245;BME280;44550;43.864;25.986;2023-05-09T18:27:42;101889.19;;;11.49;100.00
58245;BME280;44550;43.864;25.986;2023-05-09T18:31:45;101887.22;;;11.39;100.00
58245;BME280;44550;43.864;25.986;2023-05-09T18:35:46;101881.66;;;11.25;100.00
58245;BME280;44550;43.864;25.986;2023-05-09T18:39:47;101894.06;;;11.33;100.00
58245;BME280;44550;43.864;25.986;2023-05-09T18:43:50;101896.59;;;11.29;100.00
58245;BME280;44550;43.864;25.986;2023-05-09T18:47:49;101890.38;;;11.24;100.00
58245;BME280;44550;43.864;25.986;2023-05-09T18:51:55;101897.19;;;11.16;100.00
58245;BME280;44550;43.864;25.986;2023-05-09T18:56:02;101893.78;;;11.22;100.00
58245;BME280;44550;43.864;25.986;2023-05-09T19:00:34;101894.66;;;11.22;100.00
58245;BME280;44550;43.864;25.986;2023-05-09T19:04:38;101896.38;;;11.20;100.00
58245;BME280;44550;43.864;25.986;2023-05-09T19:08:54;101900.59;;;11.14;100.00
58245;BME280;44550;43.864;25.986;2023-05-09T19:12:56;101897.28;;;11.21;100.00
58245;BME280;44550;43.864;25.986;2023-05-09T19:17:03;101890.06;;;11.12;100.00
58245;BME280;44550;43.864;25.986;2023-05-09T19:21:19;101899.75;;;11.15;100.00
58245;BME280;44550;43.864;25.986;2023-05-09T19:25:20;101902.34;;;11.15;100.00
58245;BME280;44550;43.864;25.986;2023-05-09T19:29:25;101897.06;;;11.12;100.00
58245;BME280;44550;43.864;25.986;2023-05-09T19:33:29;101898.84;;;11.13;100.00
58245;BME280;44550;43.864;25.986;2023-05-09T19:37:33;101888.97;;;11.01;100.00
58245;BME280;44550;43.864;25.986;2023-05-09T19:41:33;101895.22;;;11.08;100.00
58245;BME280;44550;43.864;25.986;2023-05-09T19:45:33;101898.78;;;11.11;100.00
58245;BME280;44550;43.864;25.986;2023-05-09T19:49:36;101895.78;;;10.94;100.00
58245;BME280;44550;43.864;25.986;2023-05-09T19:53:39;101892.03;;;10.83;100.00
58245;BME280;44550;43.864;25.986;2023-05-09T19:57:39;101890.53;;;10.93;100.00
58245;BME280;44550;43.864;25.986;2023-05-09T20:01:41;101885.78;;;10.76;100.00
58245;BME280;44550;43.864;25.986;2023-05-09T20:05:43;101892.44;;;10.65;100.00
58245;BME280;44550;43.864;25.986;2023-05-09T20:09:56;101887.19;;;10.64;100.00
58245;BME280;44550;43.864;25.986;2023-05-09T20:18:20;101893.13;;;10.56;100.00
58245;BME280;44550;43.864;25.986;2023-05-09T20:22:23;101895.59;;;10.52;100.00
58245;BME280;44550;43.864;25.986;2023-05-09T20:26:25;101892.75;;;10.43;100.00
58245;BME280;44550;43.864;25.986;2023-05-09T20:30:27;101889.50;;;10.51;100.00
58245;BME280;44550;43.864;25.986;2023-05-09T20:34:29;101886.94;;;10.53;100.00
58245;BME280;44550;43.864;25.986;2023-05-09T20:38:32;101886.06;;;10.54;100.00
58245;BME280;44550;43.864;25.986;2023-05-09T20:42:33;101884.19;;;10.48;100.00
58245;BME280;44550;43.864;25.986;2023-05-09T20:46:38;101887.50;;;10.43;100.00
58245;BME280;44550;43.864;25.986;2023-05-09T20:50:41;101878.50;;;10.30;100.00
58245;BME280;44550;43.864;25.986;2023-05-09T20:54:44;101876.38;;;10.17;100.00
58245;BME280;44550;43.864;25.986;2023-05-09T20:58:46;101877.94;;;10.10;100.00
58245;BME280;44550;43.864;25.986;2023-05-09T21:02:50;101872.56;;;10.05;100.00
58245;BME280;44550;43.864;25.986;2023-05-09T21:06:59;101873.44;;;10.06;100.00
58245;BME280;44550;43.864;25.986;2023-05-09T21:11:02;101873.34;;;10.03;100.00
58245;BME280;44550;43.864;25.986;2023-05-09T21:15:07;101865.56;;;10.04;100.00
58245;BME280;44550;43.864;25.986;2023-05-09T21:19:10;101867.31;;;10.04;100.00